Time;durP1;ratioP1;P1;durP2;ratioP2;P2;SDS_P1;SDS_P2;PMS_P1;PMS_P2;Temp;Humidity;BMP_temperature;BMP_pressure;BME280_temperature;BME280_humidity;BME280_pressure;Samples;Min_cycle;Max_cycle;Signal;HPM_P1;HPM_P2
2023/10/18 00:01:25;;;;;;;4.75;4.35;;;;;;;;;;5114196;28;20278;-64
2023/10/18 00:03:53;;;;;;;4.20;3.80;;;;;;;;;;5114131;28;20725;-64
2023/10/18 00:06:22;;;;;;;4.60;4.20;;;;;;;;;;5113990;28;20199;-63
2023/10/18 00:08:50;;;;;;;4.00;3.70;;;;;;;;;;5114157;28;20184;-64
2023/10/18 00:11:18;;;;;;;4.38;3.85;;;;;;;;;;5114059;28;20763;-63
2023/10/18 00:13:50;;;;;;;4.45;3.15;;;;;;;;;;5114064;28;20373;-63
2023/10/18 00:16:18;;;;;;;4.68;4.18;;;;;;;;;;5113972;28;20257;-63
2023/10/18 00:18:45;;;;;;;3.90;3.50;;;;;;;;;;5113815;28;20279;-63
2023/10/18 00:21:12;;;;;;;8.85;4.30;;;;;;;;;;5113944;28;20187;-64
2023/10/18 00:23:39;;;;;;;4.50;4.10;;;;;;;;;;5113883;28;20631;-64
2023/10/18 00:26:07;;;;;;;5.00;3.88;;;;;;;;;;5113851;28;20231;-63
2023/10/18 00:28:36;;;;;;;4.20;3.80;;;;;;;;;;5113792;28;20275;-64
2023/10/18 00:31:13;;;;;;;5.07;4.57;;;;;;;;;;5113546;28;20247;-64
2023/10/18 00:33:41;;;;;;;3.67;3.42;;;;;;;;;;5113803;28;20188;-64
2023/10/18 00:36:10;;;;;;;6.97;4.38;;;;;;;;;;5113534;28;20586;-64
2023/10/18 00:38:39;;;;;;;4.57;4.18;;;;;;;;;;5113738;28;20199;-63
2023/10/18 00:41:09;;;;;;;4.45;4.05;;;;;;;;;;5113586;28;20194;-64
2023/10/18 00:43:36;;;;;;;3.70;3.38;;;;;;;;;;5113543;28;20192;-63
2023/10/18 00:46:07;;;;;;;4.53;4.13;;;;;;;;;;5112993;28;20704;-63
2023/10/18 00:48:35;;;;;;;4.13;3.72;;;;;;;;;;5113650;28;20188;-63
2023/10/18 00:51:05;;;;;;;4.50;4.10;;;;;;;;;;5113408;28;20259;-63
2023/10/18 00:53:33;;;;;;;3.83;3.47;;;;;;;;;;5113476;28;20188;-63
2023/10/18 00:56:04;;;;;;;4.18;3.85;;;;;;;;;;5113378;28;20234;-63
2023/10/18 00:58:31;;;;;;;4.13;3.75;;;;;;;;;;5113591;28;20176;-63
2023/10/18 01:01:01;;;;;;;3.78;3.47;;;;;;;;;;5113433;28;20188;-63
2023/10/18 01:03:32;;;;;;;3.88;3.50;;;;;;;;;;5113512;28;20192;-63
2023/10/18 01:06:00;;;;;;;4.00;3.60;;;;;;;;;;5113419;28;20188;-63
2023/10/18 01:08:29;;;;;;;4.28;3.72;;;;;;;;;;5113302;28;20223;-63
2023/10/18 01:10:57;;;;;;;3.78;3.17;;;;;;;;;;5113064;28;20261;-63
2023/10/18 01:13:24;;;;;;;4.00;3.40;;;;;;;;;;5113350;28;20219;-63
2023/10/18 01:15:51;;;;;;;4.38;3.80;;;;;;;;;;5113346;28;20191;-63
2023/10/18 01:18:18;;;;;;;4.10;3.67;;;;;;;;;;5113255;28;20620;-63
2023/10/18 01:20:46;;;;;;;4.03;3.70;;;;;;;;;;5113199;28;20195;-63
2023/10/18 01:23:13;;;;;;;4.13;3.83;;;;;;;;;;5113047;28;20199;-63
2023/10/18 01:25:41;;;;;;;4.70;4.10;;;;;;;;;;5113058;28;20608;-63
2023/10/18 01:28:08;;;;;;;3.80;3.50;;;;;;;;;;5113222;28;20188;-64
2023/10/18 01:30:35;;;;;;;4.50;3.50;;;;;;;;;;5113050;28;20302;-63
2023/10/18 01:33:04;;;;;;;4.25;3.85;;;;;;;;;;5112918;28;20658;-64
2023/10/18 01:35:31;;;;;;;4.20;3.85;;;;;;;;;;5112959;28;20188;-63
2023/10/18 01:38:04;;;;;;;3.35;3.15;;;;;;;;;;5112761;28;20235;-63
2023/10/18 01:40:41;;;;;;;3.90;3.58;;;;;;;;;;5113189;28;20528;-63
2023/10/18 01:43:11;;;;;;;4.50;3.80;;;;;;;;;;5113067;28;20188;-63
2023/10/18 01:45:38;;;;;;;4.68;3.97;;;;;;;;;;5113019;28;20192;-63
2023/10/18 01:48:09;;;;;;;4.53;4.13;;;;;;;;;;5112889;28;20231;-63
2023/10/18 01:50:38;;;;;;;4.15;3.78;;;;;;;;;;5112753;28;20242;-64
2023/10/18 01:53:15;;;;;;;4.30;3.90;;;;;;;;;;5113003;28;20531;-63
2023/10/18 01:55:43;;;;;;;4.15;3.55;;;;;;;;;;5112971;28;20192;-63
2023/10/18 01:58:11;;;;;;;4.22;3.55;;;;;;;;;;5114809;28;20191;-63
2023/10/18 02:00:43;;;;;;;5.25;3.65;;;;;;;;;;5116533;28;20831;-63
2023/10/18 02:03:12;;;;;;;4.60;4.20;;;;;;;;;;5116693;28;20600;-63
2023/10/18 02:05:39;;;;;;;4.30;3.90;;;;;;;;;;5116542;28;20184;-64
2023/10/18 02:08:06;;;;;;;5.38;4.35;;;;;;;;;;5116432;28;20198;-63
2023/10/18 02:10:34;;;;;;;6.28;5.40;;;;;;;;;;5116247;28;20255;-63
2023/10/18 02:13:01;;;;;;;6.75;5.57;;;;;;;;;;5116245;28;20283;-63
2023/10/18 02:15:30;;;;;;;6.07;5.50;;;;;;;;;;5116126;28;20547;-64
2023/10/18 02:17:57;;;;;;;5.13;4.68;;;;;;;;;;5116381;28;20546;-64
2023/10/18 02:20:28;;;;;;;5.28;4.80;;;;;;;;;;5116226;28;20284;-64
2023/10/18 02:22:59;;;;;;;5.28;4.78;;;;;;;;;;5116103;28;20187;-63
2023/10/18 02:25:37;;;;;;;5.93;5.15;;;;;;;;;;5116004;28;20192;-64
2023/10/18 02:28:08;;;;;;;4.53;4.13;;;;;;;;;;5115926;28;20236;-63
2023/10/18 02:30:38;;;;;;;5.95;5.35;;;;;;;;;;5116012;28;20211;-64
2023/10/18 02:33:05;;;;;;;5.40;5.00;;;;;;;;;;5115965;28;20190;-63
2023/10/18 02:35:33;;;;;;;5.28;4.80;;;;;;;;;;5115877;28;20744;-63
2023/10/18 02:38:08;;;;;;;5.25;4.82;;;;;;;;;;5115655;28;20216;-63
2023/10/18 02:40:38;;;;;;;7.13;5.45;;;;;;;;;;5115655;28;20607;-64
2023/10/18 02:43:10;;;;;;;5.60;5.13;;;;;;;;;;5115803;28;20248;-63
2023/10/18 02:45:39;;;;;;;6.75;4.72;;;;;;;;;;5115792;28;20192;-64
2023/10/18 02:48:08;;;;;;;5.35;4.60;;;;;;;;;;5115686;28;20298;-64
2023/10/18 02:50:38;;;;;;;5.60;5.05;;;;;;;;;;5115473;28;20220;-63
2023/10/18 02:53:06;;;;;;;5.00;4.60;;;;;;;;;;5115654;28;20210;-63
2023/10/18 02:55:38;;;;;;;6.07;5.57;;;;;;;;;;5115610;28;20195;-64
2023/10/18 02:58:06;;;;;;;5.85;4.93;;;;;;;;;;5115470;28;20241;-63
2023/10/18 03:00:34;;;;;;;5.50;5.00;;;;;;;;;;5115381;28;20196;-63
2023/10/18 03:03:03;;;;;;;6.13;5.13;;;;;;;;;;5115211;28;20190;-64
2023/10/18 03:05:33;;;;;;;5.78;5.18;;;;;;;;;;5115158;28;20214;-64
2023/10/18 03:08:00;;;;;;;4.95;4.65;;;;;;;;;;5114965;28;20536;-63
2023/10/18 03:10:28;;;;;;;5.47;5.07;;;;;;;;;;5115103;28;20207;-63
2023/10/18 03:12:55;;;;;;;5.38;4.88;;;;;;;;;;5115144;28;20195;-64
2023/10/18 03:15:24;;;;;;;4.70;4.28;;;;;;;;;;5115037;28;20191;-64
2023/10/18 03:17:51;;;;;;;6.00;5.30;;;;;;;;;;5114939;28;20195;-63
2023/10/18 03:20:23;;;;;;;5.43;4.90;;;;;;;;;;5115110;28;20283;-63
2023/10/18 03:22:50;;;;;;;6.20;4.32;;;;;;;;;;5114864;28;20188;-64
2023/10/18 03:25:26;;;;;;;5.60;5.03;;;;;;;;;;5114720;28;20524;-63
2023/10/18 03:27:57;;;;;;;4.47;4.18;;;;;;;;;;5114629;28;20195;-63
2023/10/18 03:30:41;;;;;;;4.95;4.45;;;;;;;;;;5114443;28;20235;-63
2023/10/18 03:33:11;;;;;;;5.10;4.57;;;;;;;;;;5114894;28;20191;-64
2023/10/18 03:35:40;;;;;;;6.80;4.50;;;;;;;;;;5114697;28;20195;-64
2023/10/18 03:38:17;;;;;;;10.95;4.63;;;;;;;;;;5114458;28;20315;-63
2023/10/18 03:40:47;;;;;;;6.40;4.50;;;;;;;;;;5114520;28;20192;-63
2023/10/18 03:43:15;;;;;;;5.40;5.00;;;;;;;;;;5114394;28;20636;-63
2023/10/18 03:46:13;;;;;;;5.38;4.88;;;;;;;;;;5114523;28;20188;-63
2023/10/18 03:48:44;;;;;;;5.28;4.55;;;;;;;;;;5114391;28;20751;-63
2023/10/18 03:51:17;;;;;;;5.22;4.53;;;;;;;;;;5114212;28;20219;-63
2023/10/18 03:53:44;;;;;;;4.10;3.80;;;;;;;;;;5114401;28;20192;-64
2023/10/18 03:56:13;;;;;;;5.57;4.55;;;;;;;;;;5114340;28;20188;-63
2023/10/18 03:58:48;;;;;;;4.82;4.40;;;;;;;;;;5114229;28;20188;-64
2023/10/18 04:01:19;;;;;;;6.53;5.30;;;;;;;;;;5114218;28;20192;-63
2023/10/18 04:03:46;;;;;;;5.30;4.80;;;;;;;;;;5114190;28;20192;-63
2023/10/18 04:06:23;;;;;;;5.53;4.85;;;;;;;;;;5114143;28;20203;-63
2023/10/18 04:08:50;;;;;;;5.25;4.72;;;;;;;;;;5114123;28;20403;-64
2023/10/18 04:11:24;;;;;;;4.85;4.38;;;;;;;;;;5113839;28;20215;-65
2023/10/18 04:13:51;;;;;;;6.93;4.15;;;;;;;;;;5113929;28;20197;-64
2023/10/18 04:16:25;;;;;;;5.93;4.10;;;;;;;;;;5113811;28;20195;-63
2023/10/18 04:18:52;;;;;;;4.70;4.20;;;;;;;;;;5113928;28;20283;-64
2023/10/18 04:21:25;;;;;;;5.20;4.70;;;;;;;;;;5113334;28;20188;-64
2023/10/18 04:23:54;;;;;;;5.05;4.55;;;;;;;;;;5113855;28;20279;-64
2023/10/18 04:26:21;;;;;;;3.90;3.55;;;;;;;;;;5113678;28;20585;-63
2023/10/18 04:28:54;;;;;;;9.00;5.28;;;;;;;;;;5113493;28;20547;-63
2023/10/18 04:31:22;;;;;;;6.60;4.20;;;;;;;;;;5113700;28;20207;-63
2023/10/18 04:33:50;;;;;;;5.63;4.65;;;;;;;;;;5113733;28;20188;-63
2023/10/18 04:36:20;;;;;;;4.82;3.90;;;;;;;;;;5113463;28;20184;-64
2023/10/18 04:38:49;;;;;;;5.57;4.35;;;;;;;;;;5113618;28;20192;-63
2023/10/18 04:41:31;;;;;;;9.18;6.45;;;;;;;;;;5113615;28;20227;-63
2023/10/18 04:44:02;;;;;;;22.42;9.15;;;;;;;;;;5113690;28;20237;-63
2023/10/18 04:46:30;;;;;;;10.80;7.07;;;;;;;;;;5113914;28;20184;-63
2023/10/18 04:49:22;;;;;;;10.13;6.65;;;;;;;;;;5113518;28;20275;-64
2023/10/18 04:51:49;;;;;;;13.18;5.10;;;;;;;;;;5113269;28;20208;-64
2023/10/18 04:54:18;;;;;;;9.25;5.68;;;;;;;;;;5113469;28;20192;-62
2023/10/18 04:56:45;;;;;;;9.52;6.30;;;;;;;;;;5113466;28;20190;-62
2023/10/18 04:59:26;;;;;;;6.65;5.85;;;;;;;;;;5113328;28;20194;-63
2023/10/18 05:01:56;;;;;;;16.95;8.85;;;;;;;;;;5113230;28;20199;-63
2023/10/18 05:04:28;;;;;;;23.38;12.05;;;;;;;;;;5113667;28;20191;-62
2023/10/18 05:06:56;;;;;;;19.30;9.82;;;;;;;;;;5113273;28;20218;-62
2023/10/18 05:09:30;;;;;;;24.30;10.63;;;;;;;;;;5113186;28;20215;-63
2023/10/18 05:11:58;;;;;;;8.63;7.07;;;;;;;;;;5113098;28;20223;-62
2023/10/18 05:14:40;;;;;;;19.35;10.35;;;;;;;;;;5113054;28;20192;-62
2023/10/18 05:17:10;;;;;;;7.38;6.28;;;;;;;;;;5113310;28;20184;-62
2023/10/18 05:19:37;;;;;;;14.48;5.95;;;;;;;;;;5113104;28;20724;-62
2023/10/18 05:22:05;;;;;;;6.90;6.20;;;;;;;;;;5112951;28;20657;-62
2023/10/18 05:24:37;;;;;;;7.32;6.47;;;;;;;;;;5113054;28;20196;-64
2023/10/18 05:27:05;;;;;;;8.13;6.25;;;;;;;;;;5112970;28;20304;-63
2023/10/18 05:29:42;;;;;;;14.48;6.60;;;;;;;;;;5112870;28;20670;-63
2023/10/18 05:32:09;;;;;;;6.00;5.10;;;;;;;;;;5114966;28;20739;-62
2023/10/18 05:34:50;;;;;;;9.20;5.57;;;;;;;;;;5117073;28;20216;-63
2023/10/18 05:37:19;;;;;;;6.65;5.13;;;;;;;;;;5116783;28;20223;-62
2023/10/18 05:40:41;;;;;;;6.25;5.03;;;;;;;;;;5116888;28;20219;-63
2023/10/18 05:42:36;;;;;;;5.95;5.40;;;;;;;;;;5116416;28;20281;-64
2023/10/18 05:45:04;;;;;;;7.07;5.60;;;;;;;;;;5116558;28;20241;-62
2023/10/18 05:47:31;;;;;;;8.35;5.90;;;;;;;;;;5116690;28;20196;-62
2023/10/18 05:49:59;;;;;;;8.38;5.47;;;;;;;;;;5116594;28;20273;-62
2023/10/18 05:52:37;;;;;;;8.30;4.45;;;;;;;;;;5116727;28;20212;-62
2023/10/18 05:55:09;;;;;;;9.32;6.95;;;;;;;;;;5116683;28;20668;-62
2023/10/18 05:57:37;;;;;;;10.20;6.65;;;;;;;;;;5116537;28;20237;-63
2023/10/18 06:00:15;;;;;;;7.32;6.63;;;;;;;;;;5116380;28;20199;-62
2023/10/18 06:02:42;;;;;;;7.68;6.93;;;;;;;;;;5116562;28;20187;-63
2023/10/18 06:05:10;;;;;;;7.00;5.88;;;;;;;;;;5116384;28;20195;-62
2023/10/18 06:07:37;;;;;;;7.47;6.50;;;;;;;;;;5116476;28;20192;-62
2023/10/18 06:10:13;;;;;;;11.48;8.02;;;;;;;;;;5116335;28;20646;-63
2023/10/18 06:12:41;;;;;;;11.07;8.38;;;;;;;;;;5116188;28;20636;-65
2023/10/18 06:15:11;;;;;;;12.55;9.43;;;;;;;;;;5116119;28;20192;-63
2023/10/18 06:17:46;;;;;;;10.63;9.50;;;;;;;;;;5116240;28;20184;-63
2023/10/18 06:20:24;;;;;;;14.35;13.00;;;;;;;;;;5116176;28;20588;-63
2023/10/18 06:22:53;;;;;;;16.88;15.23;;;;;;;;;;5116082;28;20187;-63
2023/10/18 06:25:26;;;;;;;13.10;11.70;;;;;;;;;;5115966;28;20196;-63
2023/10/18 06:27:54;;;;;;;11.25;10.15;;;;;;;;;;5116032;28;20196;-63
2023/10/18 06:30:24;;;;;;;10.20;8.80;;;;;;;;;;5115685;28;20643;-63
2023/10/18 06:32:51;;;;;;;10.43;9.30;;;;;;;;;;5115900;28;20219;-63
2023/10/18 06:35:19;;;;;;;9.05;8.20;;;;;;;;;;5115722;28;20621;-63
2023/10/18 06:37:46;;;;;;;9.75;8.85;;;;;;;;;;5115641;28;20228;-63
2023/10/18 06:40:22;;;;;;;14.73;11.80;;;;;;;;;;5115520;28;20277;-63
2023/10/18 06:42:51;;;;;;;11.63;6.88;;;;;;;;;;5115134;28;20231;-63
2023/10/18 06:45:19;;;;;;;7.05;6.35;;;;;;;;;;5115596;28;20609;-63
2023/10/18 06:47:46;;;;;;;7.05;6.45;;;;;;;;;;5115321;28;20268;-63
2023/10/18 06:50:13;;;;;;;5.80;5.30;;;;;;;;;;5114736;28;20191;-63
2023/10/18 06:52:44;;;;;;;5.38;4.97;;;;;;;;;;5115129;28;20219;-63
2023/10/18 06:55:16;;;;;;;4.75;4.40;;;;;;;;;;5115564;28;20199;-63
2023/10/18 06:57:45;;;;;;;5.50;5.00;;;;;;;;;;5115490;28;20220;-63
2023/10/18 07:00:15;;;;;;;5.93;5.35;;;;;;;;;;5115149;28;20536;-63
2023/10/18 07:02:44;;;;;;;6.57;5.78;;;;;;;;;;5115237;28;20220;-63
2023/10/18 07:05:11;;;;;;;8.88;6.80;;;;;;;;;;5115371;28;20578;-63
2023/10/18 07:07:38;;;;;;;6.85;5.15;;;;;;;;;;5115212;28;20678;-63
2023/10/18 07:10:12;;;;;;;6.93;5.43;;;;;;;;;;5115020;28;20188;-63
2023/10/18 07:12:51;;;;;;;5.63;5.13;;;;;;;;;;5101795;28;20311;-62
2023/10/18 07:15:22;;;;;;;6.00;5.00;;;;;;;;;;5094255;28;20184;-58
2023/10/18 07:17:51;;;;;;;4.87;4.47;;;;;;;;;;5094640;28;20216;-61
2023/10/18 07:20:19;;;;;;;5.30;4.90;;;;;;;;;;5094513;28;20576;-66
2023/10/18 07:22:49;;;;;;;6.55;4.90;;;;;;;;;;5094511;28;20215;-62
2023/10/18 07:25:21;;;;;;;6.15;4.90;;;;;;;;;;5094304;28;20188;-60
2023/10/18 07:27:49;;;;;;;5.38;4.85;;;;;;;;;;5094242;28;20192;-60
2023/10/18 07:30:16;;;;;;;5.90;5.30;;;;;;;;;;5094430;28;20710;-61
2023/10/18 07:32:48;;;;;;;6.00;4.70;;;;;;;;;;5094070;28;20216;-62
2023/10/18 07:35:26;;;;;;;6.22;5.63;;;;;;;;;;5094382;28;20287;-61
2023/10/18 07:37:54;;;;;;;7.55;6.65;;;;;;;;;;5093861;28;20216;-61
2023/10/18 07:40:21;;;;;;;7.93;7.13;;;;;;;;;;5094077;28;20192;-59
2023/10/18 07:42:51;;;;;;;7.80;6.95;;;;;;;;;;5094283;28;20184;-57
2023/10/18 07:45:21;;;;;;;10.03;8.10;;;;;;;;;;5094054;28;20185;-61
2023/10/18 07:47:54;;;;;;;11.15;10.00;;;;;;;;;;5094076;28;20538;-60
2023/10/18 07:53:11;;;;;;;9.88;7.82;;;;;;;;;;5088483;28;20466;-58
2023/10/18 07:55:41;;;;;;;7.00;6.38;;;;;;;;;;5092955;28;20238;-59
2023/10/18 07:58:18;;;;;;;7.85;6.60;;;;;;;;;;5093792;28;20192;-60
2023/10/18 08:01:07;;;;;;;8.13;6.85;;;;;;;;;;5093627;28;20221;-61
2023/10/18 08:03:35;;;;;;;8.37;6.80;;;;;;;;;;5093898;28;20643;-60
2023/10/18 08:06:06;;;;;;;8.82;7.93;;;;;;;;;;5093677;28;20534;-59
2023/10/18 08:08:36;;;;;;;8.10;7.30;;;;;;;;;;5093629;28;20192;-60
2023/10/18 08:11:06;;;;;;;9.00;7.10;;;;;;;;;;5093551;28;20275;-59
2023/10/18 08:13:43;;;;;;;9.00;8.10;;;;;;;;;;5093348;28;20846;-60
2023/10/18 08:16:11;;;;;;;9.90;7.73;;;;;;;;;;5093647;28;20442;-59
2023/10/18 08:18:43;;;;;;;9.73;8.45;;;;;;;;;;5093459;28;20809;-61
2023/10/18 08:21:25;;;;;;;9.70;8.70;;;;;;;;;;5093394;28;20552;-59
2023/10/18 08:23:52;;;;;;;10.33;9.33;;;;;;;;;;5093354;28;20815;-60
2023/10/18 08:26:20;;;;;;;11.33;9.13;;;;;;;;;;5093315;28;20858;-59
2023/10/18 08:28:47;;;;;;;9.67;8.63;;;;;;;;;;5093143;28;20946;-56
2023/10/18 08:31:26;;;;;;;10.97;8.10;;;;;;;;;;5093261;28;20549;-55
2023/10/18 08:33:56;;;;;;;9.30;8.40;;;;;;;;;;5093186;28;20572;-55
2023/10/18 08:36:29;;;;;;;10.80;8.10;;;;;;;;;;5093034;28;20544;-56
2023/10/18 08:38:56;;;;;;;9.90;8.53;;;;;;;;;;5093340;28;20433;-56
2023/10/18 08:41:26;;;;;;;11.37;9.43;;;;;;;;;;5093168;28;20783;-55
2023/10/18 08:43:59;;;;;;;8.87;7.60;;;;;;;;;;5093244;28;20948;-54
2023/10/18 08:46:27;;;;;;;11.10;8.80;;;;;;;;;;5093030;28;20968;-52
2023/10/18 08:48:57;;;;;;;13.13;9.43;;;;;;;;;;5093063;28;20450;-54
2023/10/18 08:51:27;;;;;;;12.33;9.00;;;;;;;;;;5092983;28;20906;-55
2023/10/18 08:53:55;;;;;;;11.37;9.53;;;;;;;;;;5092797;28;21011;-56
2023/10/18 08:56:29;;;;;;;9.40;8.47;;;;;;;;;;5093017;28;20451;-56
2023/10/18 08:58:57;;;;;;;8.77;7.87;;;;;;;;;;5092973;28;20447;-54
2023/10/18 09:01:24;;;;;;;8.80;7.90;;;;;;;;;;5092751;28;20987;-57
2023/10/18 09:03:50;;;;;;;11.07;8.87;;;;;;;;;;5092606;28;20446;-55
2023/10/18 09:06:30;;;;;;;7.37;6.63;;;;;;;;;;5093699;28;20927;-56
2023/10/18 09:09:03;;;;;;;10.10;8.03;;;;;;;;;;5097242;28;20477;-55
2023/10/18 09:11:32;;;;;;;8.77;7.10;;;;;;;;;;5097053;28;20450;-55
2023/10/18 09:14:11;;;;;;;8.67;7.40;;;;;;;;;;5096755;28;20478;-62
2023/10/18 09:16:39;;;;;;;8.57;7.80;;;;;;;;;;5096966;28;20507;-55
2023/10/18 09:19:06;;;;;;;8.40;7.00;;;;;;;;;;5096841;28;20873;-55
2023/10/18 09:21:42;;;;;;;7.40;6.80;;;;;;;;;;5096716;28;20960;-54
2023/10/18 09:24:09;;;;;;;7.30;6.60;;;;;;;;;;5096799;28;20636;-55
2023/10/18 09:26:40;;;;;;;8.43;6.93;;;;;;;;;;5096537;28;20457;-56
2023/10/18 09:29:08;;;;;;;9.00;7.37;;;;;;;;;;5096822;28;20450;-56
2023/10/18 09:31:36;;;;;;;5.93;5.43;;;;;;;;;;5096802;28;20815;-54
2023/10/18 09:34:08;;;;;;;7.13;6.50;;;;;;;;;;5096576;28;20478;-56
2023/10/18 09:36:39;;;;;;;6.70;5.77;;;;;;;;;;5096439;28;20478;-55
2023/10/18 09:39:09;;;;;;;6.30;5.77;;;;;;;;;;5096833;28;20450;-56
2023/10/18 09:41:37;;;;;;;5.43;4.90;;;;;;;;;;5096371;28;20921;-55
2023/10/18 09:44:04;;;;;;;6.97;6.37;;;;;;;;;;5096555;28;20442;-53
2023/10/18 09:46:32;;;;;;;5.70;5.20;;;;;;;;;;5096451;28;20537;-53
2023/10/18 09:48:59;;;;;;;5.80;5.30;;;;;;;;;;5096373;28;20852;-54
2023/10/18 09:51:27;;;;;;;5.50;5.00;;;;;;;;;;5096225;28;20442;-51
2023/10/18 09:53:56;;;;;;;5.73;5.23;;;;;;;;;;5114133;28;20901;-51
2023/10/18 09:56:26;;;;;;;7.03;6.17;;;;;;;;;;5116658;28;20782;-50
2023/10/18 09:59:04;;;;;;;6.23;5.40;;;;;;;;;;5116600;28;20453;-51
2023/10/18 10:01:53;;;;;;;5.60;5.10;;;;;;;;;;5116434;28;20434;-53
2023/10/18 10:04:20;;;;;;;7.70;5.87;;;;;;;;;;5116172;28;20447;-50
2023/10/18 10:06:47;;;;;;;6.27;5.67;;;;;;;;;;5116148;28;20940;-60
2023/10/18 10:09:17;;;;;;;7.83;6.13;;;;;;;;;;5116381;28;20452;-61
2023/10/18 10:11:45;;;;;;;9.93;5.97;;;;;;;;;;5115734;28;20445;-60
2023/10/18 10:14:15;;;;;;;11.37;5.83;;;;;;;;;;5116021;28;20480;-61
2023/10/18 10:16:45;;;;;;;7.53;6.83;;;;;;;;;;5105975;28;20937;-59
2023/10/18 10:19:13;;;;;;;9.60;6.47;;;;;;;;;;5094606;28;20507;-54
2023/10/18 10:21:41;;;;;;;7.00;6.30;;;;;;;;;;5095632;28;20442;-53
2023/10/18 10:24:29;;;;;;;5.53;5.03;;;;;;;;;;5095508;28;20501;-58
2023/10/18 10:27:21;;;;;;;7.77;5.63;;;;;;;;;;5095474;28;20495;-59
2023/10/18 10:29:56;;;;;;;5.33;4.93;;;;;;;;;;5095503;28;20836;-59
2023/10/18 10:32:23;;;;;;;5.83;5.30;;;;;;;;;;5095411;28;20460;-58
2023/10/18 10:34:53;;;;;;;6.70;4.80;;;;;;;;;;5095216;28;20454;-57
2023/10/18 10:37:23;;;;;;;5.70;4.00;;;;;;;;;;5095019;28;20481;-55
2023/10/18 10:39:50;;;;;;;4.60;4.20;;;;;;;;;;5095613;28;20438;-67
2023/10/18 10:42:42;;;;;;;5.40;5.00;;;;;;;;;;5095257;28;20534;-60
2023/10/18 10:45:11;;;;;;;7.93;5.07;;;;;;;;;;5104170;28;20965;-60
2023/10/18 10:47:44;;;;;;;5.40;4.97;;;;;;;;;;5114030;28;20437;-60
2023/10/18 10:50:12;;;;;;;4.60;4.20;;;;;;;;;;5114770;28;20483;-61
2023/10/18 10:52:44;;;;;;;6.63;4.60;;;;;;;;;;5115420;28;20545;-61
2023/10/18 10:55:19;;;;;;;4.27;3.93;;;;;;;;;;5113406;28;20537;-61
2023/10/18 10:57:50;;;;;;;4.53;4.10;;;;;;;;;;5114784;28;20445;-60
2023/10/18 11:00:36;;;;;;;4.20;3.80;;;;;;;;;;5115035;28;20477;-61
2023/10/18 11:03:08;;;;;;;7.13;3.87;;;;;;;;;;5112098;28;20849;-61
2023/10/18 11:05:38;;;;;;;4.27;3.97;;;;;;;;;;5114276;28;20812;-60
2023/10/18 11:08:06;;;;;;;4.53;4.13;;;;;;;;;;5114943;28;20442;-60
2023/10/18 11:10:36;;;;;;;5.13;4.30;;;;;;;;;;5114954;28;20472;-60
2023/10/18 11:13:07;;;;;;;4.50;4.10;;;;;;;;;;5114749;28;20469;-61
2023/10/18 11:15:42;;;;;;;4.53;4.23;;;;;;;;;;5115012;28;20446;-61
2023/10/18 11:18:20;;;;;;;4.10;3.80;;;;;;;;;;5114819;28;21010;-57
2023/10/18 11:20:58;;;;;;;4.83;4.37;;;;;;;;;;5114720;28;20438;-60
2023/10/18 11:23:26;;;;;;;5.37;4.70;;;;;;;;;;5114632;28;21001;-61
2023/10/18 11:25:56;;;;;;;4.60;4.20;;;;;;;;;;5114839;28;20529;-62
2023/10/18 11:28:29;;;;;;;5.37;4.87;;;;;;;;;;5114569;28;20865;-61
2023/10/18 11:30:57;;;;;;;5.87;4.87;;;;;;;;;;5111643;28;20495;-62
2023/10/18 11:33:36;;;;;;;4.87;4.47;;;;;;;;;;5113814;28;20480;-63
2023/10/18 11:36:03;;;;;;;4.33;4.03;;;;;;;;;;5112201;28;20784;-62
2023/10/18 11:38:34;;;;;;;3.97;3.67;;;;;;;;;;5114369;28;20450;-61
2023/10/18 11:41:04;;;;;;;4.90;4.50;;;;;;;;;;5114592;28;20433;-62
2023/10/18 11:43:39;;;;;;;5.90;5.17;;;;;;;;;;5113860;28;20438;-62
2023/10/18 11:46:06;;;;;;;5.30;4.53;;;;;;;;;;5114305;28;20460;-62
2023/10/18 11:48:34;;;;;;;5.30;4.80;;;;;;;;;;5114500;28;20452;-62
2023/10/18 11:51:02;;;;;;;4.13;3.93;;;;;;;;;;5114336;28;20445;-60
2023/10/18 11:53:29;;;;;;;5.03;4.53;;;;;;;;;;5114177;28;20507;-60
2023/10/18 11:55:56;;;;;;;4.97;4.47;;;;;;;;;;5114154;28;20503;-60
2023/10/18 11:58:24;;;;;;;5.50;4.10;;;;;;;;;;5114179;28;20925;-60
2023/10/18 12:00:58;;;;;;;6.27;4.20;;;;;;;;;;5114074;28;20857;-60
2023/10/18 12:03:27;;;;;;;4.27;3.97;;;;;;;;;;5114084;28;20460;-62
2023/10/18 12:05:55;;;;;;;4.23;3.83;;;;;;;;;;5114120;28;20455;-61
2023/10/18 12:08:23;;;;;;;4.90;4.50;;;;;;;;;;5113963;28;20441;-62
2023/10/18 12:10:50;;;;;;;6.43;4.87;;;;;;;;;;5113860;28;20437;-61
2023/10/18 12:13:20;;;;;;;5.23;4.73;;;;;;;;;;5113561;28;20465;-62
2023/10/18 12:15:47;;;;;;;5.37;4.37;;;;;;;;;;5113634;28;20452;-60
2023/10/18 12:18:15;;;;;;;5.63;5.00;;;;;;;;;;5113627;28;20446;-59
2023/10/18 12:20:44;;;;;;;6.83;4.20;;;;;;;;;;5113878;28;20878;-59
2023/10/18 12:23:13;;;;;;;7.20;4.70;;;;;;;;;;5113598;28;20502;-59
2023/10/18 12:25:42;;;;;;;4.57;4.17;;;;;;;;;;5113666;28;20528;-59
2023/10/18 12:28:12;;;;;;;4.50;4.00;;;;;;;;;;5113595;28;20807;-62
2023/10/18 12:30:39;;;;;;;5.67;5.10;;;;;;;;;;5113634;28;20441;-62
2023/10/18 12:33:06;;;;;;;7.20;4.03;;;;;;;;;;5113374;28;20509;-63
2023/10/18 12:35:36;;;;;;;4.43;3.90;;;;;;;;;;5113301;28;20441;-63
2023/10/18 12:38:13;;;;;;;4.03;3.63;;;;;;;;;;5113299;28;21054;-58
2023/10/18 12:40:41;;;;;;;4.13;3.83;;;;;;;;;;5112791;28;20445;-62
2023/10/18 12:43:13;;;;;;;4.07;3.77;;;;;;;;;;5113420;28;20445;-59
2023/10/18 12:45:42;;;;;;;5.93;4.00;;;;;;;;;;5113374;28;20801;-61
2023/10/18 12:48:10;;;;;;;4.37;3.97;;;;;;;;;;5113272;28;20449;-61
2023/10/18 12:50:38;;;;;;;4.30;3.90;;;;;;;;;;5113365;28;20446;-61
2023/10/18 12:53:18;;;;;;;5.80;4.63;;;;;;;;;;5113343;28;20517;-60
2023/10/18 12:55:45;;;;;;;4.83;4.17;;;;;;;;;;5113293;28;20928;-60
2023/10/18 12:58:18;;;;;;;5.25;4.63;;;;;;;;;;5112423;28;20439;-60
2023/10/18 13:00:45;;;;;;;4.00;3.80;;;;;;;;;;5113305;28;20192;-60
2023/10/18 13:03:32;;;;;;;4.07;3.50;;;;;;;;;;5113131;28;20449;-60
2023/10/18 13:06:00;;;;;;;6.13;4.33;;;;;;;;;;5113370;28;20450;-60
2023/10/18 13:08:27;;;;;;;3.67;3.37;;;;;;;;;;5113188;28;20471;-60
2023/10/18 13:13:41;;;;;;;4.27;3.90;;;;;;;;;;5112341;28;20465;-60
2023/10/18 13:16:13;;;;;;;4.43;4.03;;;;;;;;;;5113247;28;20445;-60
2023/10/18 13:18:40;;;;;;;4.57;3.40;;;;;;;;;;5113262;28;20446;-60
2023/10/18 13:21:11;;;;;;;4.47;3.47;;;;;;;;;;5113004;28;20450;-60
2023/10/18 13:23:39;;;;;;;3.50;3.20;;;;;;;;;;5112858;28;20988;-60
2023/10/18 13:26:06;;;;;;;4.10;3.73;;;;;;;;;;5112497;28;20441;-60
2023/10/18 13:28:48;;;;;;;4.10;3.70;;;;;;;;;;5112654;28;20459;-60
2023/10/18 13:31:22;;;;;;;3.80;3.50;;;;;;;;;;5110755;28;20473;-59
2023/10/18 13:33:52;;;;;;;3.07;2.77;;;;;;;;;;5109744;28;20551;-59
2023/10/18 13:36:21;;;;;;;4.00;3.70;;;;;;;;;;5112125;28;20462;-59
2023/10/18 13:38:49;;;;;;;5.70;4.00;;;;;;;;;;5112447;28;20483;-59
2023/10/18 13:41:16;;;;;;;3.37;3.10;;;;;;;;;;5112987;28;20537;-59
2023/10/18 13:43:43;;;;;;;5.40;3.50;;;;;;;;;;5112324;28;20992;-59
2023/10/18 13:46:18;;;;;;;4.40;4.07;;;;;;;;;;5112422;28;20434;-59
2023/10/18 13:48:46;;;;;;;6.60;4.60;;;;;;;;;;5110028;28;20444;-59
2023/10/18 13:51:13;;;;;;;4.27;3.87;;;;;;;;;;5112538;28;20473;-59
2023/10/18 13:53:42;;;;;;;4.03;3.63;;;;;;;;;;5115174;28;20798;-59
2023/10/18 13:56:12;;;;;;;6.90;4.50;;;;;;;;;;5116011;28;20437;-58
2023/10/18 13:58:39;;;;;;;4.23;3.80;;;;;;;;;;5115995;28;20843;-61
2023/10/18 14:01:06;;;;;;;4.77;4.23;;;;;;;;;;5116143;28;20433;-60
2023/10/18 14:03:33;;;;;;;4.57;4.27;;;;;;;;;;5115913;28;20541;-61
2023/10/18 14:06:00;;;;;;;4.70;4.33;;;;;;;;;;5116302;28;20944;-60
2023/10/18 14:08:28;;;;;;;5.97;5.43;;;;;;;;;;5116439;28;20452;-60
2023/10/18 14:10:56;;;;;;;5.60;4.37;;;;;;;;;;5116377;28;20442;-60
2023/10/18 14:13:24;;;;;;;5.53;4.90;;;;;;;;;;5116281;28;20875;-58
2023/10/18 14:15:51;;;;;;;4.00;3.70;;;;;;;;;;5116109;28;20441;-58
2023/10/18 14:18:18;;;;;;;4.67;3.83;;;;;;;;;;5115886;28;20804;-61
2023/10/18 14:20:50;;;;;;;5.90;5.00;;;;;;;;;;5116361;28;20441;-60
2023/10/18 14:23:19;;;;;;;6.73;5.87;;;;;;;;;;5116277;28;21094;-60
2023/10/18 14:25:46;;;;;;;6.63;6.03;;;;;;;;;;5116302;28;20441;-60
2023/10/18 14:28:14;;;;;;;6.10;5.53;;;;;;;;;;5116151;28;20877;-61
2023/10/18 14:30:41;;;;;;;8.93;4.53;;;;;;;;;;5115926;28;20477;-60
2023/10/18 14:33:09;;;;;;;4.30;4.00;;;;;;;;;;5115778;28;20442;-61
2023/10/18 14:35:36;;;;;;;5.13;4.63;;;;;;;;;;5115797;28;20481;-61
2023/10/18 14:38:06;;;;;;;6.17;4.40;;;;;;;;;;5115609;28;20474;-61
2023/10/18 14:40:35;;;;;;;6.43;5.50;;;;;;;;;;5115710;28;20453;-60
2023/10/18 14:43:04;;;;;;;6.13;5.20;;;;;;;;;;5115631;28;20933;-60
2023/10/18 14:45:34;;;;;;;5.83;4.60;;;;;;;;;;5115528;28;20449;-61
2023/10/18 14:48:01;;;;;;;4.80;4.40;;;;;;;;;;5115773;28;20861;-61
2023/10/18 14:50:30;;;;;;;6.67;5.40;;;;;;;;;;5115632;28;20496;-60
2023/10/18 14:52:57;;;;;;;5.50;5.00;;;;;;;;;;5115464;28;20438;-60
2023/10/18 14:55:24;;;;;;;5.63;4.80;;;;;;;;;;5115369;28;20980;-60
2023/10/18 14:57:51;;;;;;;6.57;5.90;;;;;;;;;;5115234;28;20537;-60
2023/10/18 15:00:20;;;;;;;5.43;4.67;;;;;;;;;;5115484;28;20454;-60
2023/10/18 15:02:50;;;;;;;4.03;3.70;;;;;;;;;;5115414;28;20457;-60
2023/10/18 15:05:17;;;;;;;5.83;4.20;;;;;;;;;;5114717;28;20940;-60